sensor_id;sensor_type;location;lat;lon;timestamp;temperature;humidity
7000;DHT22;3540;53.242;10.408;2022-12-18T00:02:13;-6.40;99.90
7000;DHT22;3540;53.242;10.408;2022-12-18T00:04:38;-6.40;99.90
7000;DHT22;3540;53.242;10.408;2022-12-18T00:07:04;-6.40;99.90
7000;DHT22;3540;53.242;10.408;2022-12-18T00:09:30;-6.40;99.90
7000;DHT22;3540;53.242;10.408;2022-12-18T00:11:55;-6.50;99.90
7000;DHT22;3540;53.242;10.408;2022-12-18T00:14:21;-6.50;99.90
7000;DHT22;3540;53.242;10.408;2022-12-18T00:16:47;-6.50;99.90
7000;DHT22;3540;53.242;10.408;2022-12-18T00:19:13;-6.50;99.90
7000;DHT22;3540;53.242;10.408;2022-12-18T00:21:40;-6.50;99.90
7000;DHT22;3540;53.242;10.408;2022-12-18T00:24:06;-6.50;99.90
7000;DHT22;3540;53.242;10.408;2022-12-18T00:26:33;-6.50;99.90
7000;DHT22;3540;53.242;10.408;2022-12-18T00:29:05;-6.50;99.90
7000;DHT22;3540;53.242;10.408;2022-12-18T00:31:31;-6.60;99.90
7000;DHT22;3540;53.242;10.408;2022-12-18T00:33:58;-6.50;99.90
7000;DHT22;3540;53.242;10.408;2022-12-18T00:36:26;-6.60;99.90
7000;DHT22;3540;53.242;10.408;2022-12-18T00:38:54;-6.60;99.90
7000;DHT22;3540;53.242;10.408;2022-12-18T00:41:20;-6.60;99.90
7000;DHT22;3540;53.242;10.408;2022-12-18T00:44:05;-6.60;99.90
7000;DHT22;3540;53.242;10.408;2022-12-18T00:46:31;-6.60;99.90
7000;DHT22;3540;53.242;10.408;2022-12-18T00:48:57;-6.60;99.90
7000;DHT22;3540;53.242;10.408;2022-12-18T00:51:24;-6.60;99.90
7000;DHT22;3540;53.242;10.408;2022-12-18T00:53:49;-6.60;99.90
7000;DHT22;3540;53.242;10.408;2022-12-18T00:56:15;-6.60;99.90
7000;DHT22;3540;53.242;10.408;2022-12-18T00:58:41;-6.60;99.90
7000;DHT22;3540;53.242;10.408;2022-12-18T01:01:07;-6.60;99.90
7000;DHT22;3540;53.242;10.408;2022-12-18T01:03:33;-6.60;99.90
7000;DHT22;3540;53.242;10.408;2022-12-18T01:05:58;-6.70;99.90
7000;DHT22;3540;53.242;10.408;2022-12-18T01:08:24;-6.70;99.90
7000;DHT22;3540;53.242;10.408;2022-12-18T01:10:51;-6.70;99.90
7000;DHT22;3540;53.242;10.408;2022-12-18T01:13:16;-6.70;99.90
7000;DHT22;3540;53.242;10.408;2022-12-18T01:15:51;-6.70;99.90
7000;DHT22;3540;53.242;10.408;2022-12-18T01:18:17;-6.70;99.90
7000;DHT22;3540;53.242;10.408;2022-12-18T01:20:42;-6.70;99.90
7000;DHT22;3540;53.242;10.408;2022-12-18T01:23:08;-6.70;99.90
7000;DHT22;3540;53.242;10.408;2022-12-18T01:25:35;-6.70;99.90
7000;DHT22;3540;53.242;10.408;2022-12-18T01:28:01;-6.80;99.90
7000;DHT22;3540;53.242;10.408;2022-12-18T01:30:27;-6.80;99.90
7000;DHT22;3540;53.242;10.408;2022-12-18T01:32:53;-6.80;99.90
7000;DHT22;3540;53.242;10.408;2022-12-18T01:35:18;-6.80;99.90
7000;DHT22;3540;53.242;10.408;2022-12-18T01:37:44;-6.90;99.90
7000;DHT22;3540;53.242;10.408;2022-12-18T01:40:10;-6.90;99.90
7000;DHT22;3540;53.242;10.408;2022-12-18T01:42:36;-6.90;99.90
7000;DHT22;3540;53.242;10.408;2022-12-18T01:47:40;-7.00;99.90
7000;DHT22;3540;53.242;10.408;2022-12-18T01:50:14;-7.00;99.90
7000;DHT22;3540;53.242;10.408;2022-12-18T01:52:43;-7.00;99.90
7000;DHT22;3540;53.242;10.408;2022-12-18T01:55:09;-7.00;99.90
7000;DHT22;3540;53.242;10.408;2022-12-18T01:57:37;-7.00;99.90
7000;DHT22;3540;53.242;10.408;2022-12-18T02:00:14;-7.00;99.90
7000;DHT22;3540;53.242;10.408;2022-12-18T02:02:41;-7.00;99.90
7000;DHT22;3540;53.242;10.408;2022-12-18T02:05:09;-7.10;99.90
7000;DHT22;3540;53.242;10.408;2022-12-18T02:10:26;-7.00;99.90
7000;DHT22;3540;53.242;10.408;2022-12-18T02:15:41;-7.00;99.90
7000;DHT22;3540;53.242;10.408;2022-12-18T02:18:11;-7.00;99.90
7000;DHT22;3540;53.242;10.408;2022-12-18T02:20:49;-7.00;99.90
7000;DHT22;3540;53.242;10.408;2022-12-18T02:23:56;-7.00;99.90
7000;DHT22;3540;53.242;10.408;2022-12-18T02:29:05;-7.10;99.90
7000;DHT22;3540;53.242;10.408;2022-12-18T02:31:47;-7.10;99.90
7000;DHT22;3540;53.242;10.408;2022-12-18T02:34:16;-7.10;99.90
7000;DHT22;3540;53.242;10.408;2022-12-18T02:36:44;-7.10;99.90
7000;DHT22;3540;53.242;10.408;2022-12-18T02:39:12;-7.10;99.90
7000;DHT22;3540;53.242;10.408;2022-12-18T02:41:39;-7.10;99.90
7000;DHT22;3540;53.242;10.408;2022-12-18T02:44:11;-7.10;99.90
7000;DHT22;3540;53.242;10.408;2022-12-18T02:46:45;-7.10;99.90
7000;DHT22;3540;53.242;10.408;2022-12-18T02:54:42;-7.30;99.90
7000;DHT22;3540;53.242;10.408;2022-12-18T03:02:48;-7.30;99.90
7000;DHT22;3540;53.242;10.408;2022-12-18T03:05:20;-7.30;99.90
7000;DHT22;3540;53.242;10.408;2022-12-18T03:07:59;-7.30;99.90
7000;DHT22;3540;53.242;10.408;2022-12-18T03:10:32;-7.30;99.90
7000;DHT22;3540;53.242;10.408;2022-12-18T03:13:05;-7.30;99.90
7000;DHT22;3540;53.242;10.408;2022-12-18T03:15:45;-7.40;99.90
7000;DHT22;3540;53.242;10.408;2022-12-18T03:18:19;-7.40;99.90
7000;DHT22;3540;53.242;10.408;2022-12-18T03:20:48;-7.40;99.90
7000;DHT22;3540;53.242;10.408;2022-12-18T03:23:19;-7.40;99.90
7000;DHT22;3540;53.242;10.408;2022-12-18T03:25:46;-7.40;99.90
7000;DHT22;3540;53.242;10.408;2022-12-18T03:28:16;-7.40;99.90
7000;DHT22;3540;53.242;10.408;2022-12-18T03:30:46;-7.50;99.90
7000;DHT22;3540;53.242;10.408;2022-12-18T03:33:19;-7.50;99.90
7000;DHT22;3540;53.242;10.408;2022-12-18T03:35:49;-7.60;99.90
7000;DHT22;3540;53.242;10.408;2022-12-18T03:38:15;-7.60;99.90
7000;DHT22;3540;53.242;10.408;2022-12-18T03:46:08;-7.60;99.90
7000;DHT22;3540;53.242;10.408;2022-12-18T03:48:44;-7.60;99.90
7000;DHT22;3540;53.242;10.408;2022-12-18T03:51:18;-7.60;99.90
7000;DHT22;3540;53.242;10.408;2022-12-18T03:53:58;-7.60;99.90
7000;DHT22;3540;53.242;10.408;2022-12-18T03:56:29;-7.70;99.90
7000;DHT22;3540;53.242;10.408;2022-12-18T03:58:57;-7.70;99.90
7000;DHT22;3540;53.242;10.408;2022-12-18T04:01:34;-7.60;99.90
7000;DHT22;3540;53.242;10.408;2022-12-18T04:04:01;-7.60;99.90
7000;DHT22;3540;53.242;10.408;2022-12-18T04:06:28;-7.60;99.90
7000;DHT22;3540;53.242;10.408;2022-12-18T04:08:54;-7.60;99.90
7000;DHT22;3540;53.242;10.408;2022-12-18T04:11:20;-7.60;99.90
7000;DHT22;3540;53.242;10.408;2022-12-18T04:13:46;-7.60;99.90
7000;DHT22;3540;53.242;10.408;2022-12-18T04:16:11;-7.60;99.90
7000;DHT22;3540;53.242;10.408;2022-12-18T04:18:37;-7.60;99.90
7000;DHT22;3540;53.242;10.408;2022-12-18T04:21:03;-7.70;99.90
7000;DHT22;3540;53.242;10.408;2022-12-18T04:23:28;-7.70;99.90
7000;DHT22;3540;53.242;10.408;2022-12-18T04:25:54;-7.70;99.90
7000;DHT22;3540;53.242;10.408;2022-12-18T04:28:20;-7.80;99.90
7000;DHT22;3540;53.242;10.408;2022-12-18T04:30:47;-7.80;99.90
7000;DHT22;3540;53.242;10.408;2022-12-18T04:33:13;-7.80;99.90
7000;DHT22;3540;53.242;10.408;2022-12-18T04:35:42;-7.80;99.90
7000;DHT22;3540;53.242;10.408;2022-12-18T04:38:08;-7.80;99.90
7000;DHT22;3540;53.242;10.408;2022-12-18T04:40:34;-7.90;99.90
7000;DHT22;3540;53.242;10.408;2022-12-18T04:42:59;-7.90;99.90
7000;DHT22;3540;53.242;10.408;2022-12-18T04:45:25;-7.90;99.90
7000;DHT22;3540;53.242;10.408;2022-12-18T04:47:51;-8.00;99.90
7000;DHT22;3540;53.242;10.408;2022-12-18T04:50:16;-8.00;99.90
7000;DHT22;3540;53.242;10.408;2022-12-18T04:52:42;-8.00;99.90
7000;DHT22;3540;53.242;10.408;2022-12-18T04:55:08;-8.00;99.90
7000;DHT22;3540;53.242;10.408;2022-12-18T04:57:33;-8.00;99.90
7000;DHT22;3540;53.242;10.408;2022-12-18T04:59:59;-8.10;99.90
7000;DHT22;3540;53.242;10.408;2022-12-18T05:02:25;-8.00;99.90
7000;DHT22;3540;53.242;10.408;2022-12-18T05:04:50;-8.10;99.90
7000;DHT22;3540;53.242;10.408;2022-12-18T05:07:16;-8.10;99.90
7000;DHT22;3540;53.242;10.408;2022-12-18T05:09:41;-8.00;99.90
7000;DHT22;3540;53.242;10.408;2022-12-18T05:12:07;-8.10;99.90
7000;DHT22;3540;53.242;10.408;2022-12-18T05:14:33;-8.10;99.90
7000;DHT22;3540;53.242;10.408;2022-12-18T05:16:58;-8.10;99.90
7000;DHT22;3540;53.242;10.408;2022-12-18T05:19:24;-8.10;99.90
7000;DHT22;3540;53.242;10.408;2022-12-18T05:21:49;-8.10;99.90
7000;DHT22;3540;53.242;10.408;2022-12-18T05:24:15;-8.10;99.90
7000;DHT22;3540;53.242;10.408;2022-12-18T05:26:41;-8.10;99.90
7000;DHT22;3540;53.242;10.408;2022-12-18T05:29:06;-8.10;99.90
7000;DHT22;3540;53.242;10.408;2022-12-18T05:31:32;-8.10;99.90
7000;DHT22;3540;53.242;10.408;2022-12-18T05:33:57;-8.10;99.90
7000;DHT22;3540;53.242;10.408;2022-12-18T05:36:26;-8.10;99.90
7000;DHT22;3540;53.242;10.408;2022-12-18T05:38:52;-8.10;99.90
7000;DHT22;3540;53.242;10.408;2022-12-18T05:41:17;-8.10;99.90
7000;DHT22;3540;53.242;10.408;2022-12-18T05:43:43;-8.10;99.90
7000;DHT22;3540;53.242;10.408;2022-12-18T05:46:13;-8.10;99.90
7000;DHT22;3540;53.242;10.408;2022-12-18T05:48:38;-8.00;99.90
7000;DHT22;3540;53.242;10.408;2022-12-18T05:51:09;-8.10;99.90
7000;DHT22;3540;53.242;10.408;2022-12-18T05:53:36;-8.10;99.90
7000;DHT22;3540;53.242;10.408;2022-12-18T05:56:03;-8.10;99.90
7000;DHT22;3540;53.242;10.408;2022-12-18T05:58:30;-8.10;99.90
7000;DHT22;3540;53.242;10.408;2022-12-18T06:00:56;-8.20;99.90
7000;DHT22;3540;53.242;10.408;2022-12-18T06:03:21;-8.20;99.90
7000;DHT22;3540;53.242;10.408;2022-12-18T06:05:47;-8.20;99.90
7000;DHT22;3540;53.242;10.408;2022-12-18T06:08:13;-8.20;99.90
7000;DHT22;3540;53.242;10.408;2022-12-18T06:10:40;-8.10;99.90
7000;DHT22;3540;53.242;10.408;2022-12-18T06:13:06;-8.20;99.90
7000;DHT22;3540;53.242;10.408;2022-12-18T06:15:32;-8.10;99.90
7000;DHT22;3540;53.242;10.408;2022-12-18T06:18:00;-8.20;99.90
7000;DHT22;3540;53.242;10.408;2022-12-18T06:20:26;-8.20;99.90
7000;DHT22;3540;53.242;10.408;2022-12-18T06:22:55;-8.20;99.90
7000;DHT22;3540;53.242;10.408;2022-12-18T06:25:20;-8.30;99.90
7000;DHT22;3540;53.242;10.408;2022-12-18T06:27:47;-8.30;99.90
7000;DHT22;3540;53.242;10.408;2022-12-18T06:30:14;-8.30;99.90
7000;DHT22;3540;53.242;10.408;2022-12-18T06:32:39;-8.30;99.90
7000;DHT22;3540;53.242;10.408;2022-12-18T06:35:05;-8.30;99.90
7000;DHT22;3540;53.242;10.408;2022-12-18T06:37:31;-8.30;99.90
7000;DHT22;3540;53.242;10.408;2022-12-18T06:39:57;-8.40;99.90
7000;DHT22;3540;53.242;10.408;2022-12-18T06:42:23;-8.40;99.90
7000;DHT22;3540;53.242;10.408;2022-12-18T06:44:49;-8.40;99.90
7000;DHT22;3540;53.242;10.408;2022-12-18T06:47:15;-8.40;99.90
7000;DHT22;3540;53.242;10.408;2022-12-18T06:49:40;-8.40;99.90
7000;DHT22;3540;53.242;10.408;2022-12-18T06:52:06;-8.40;99.90
7000;DHT22;3540;53.242;10.408;2022-12-18T06:54:32;-8.40;99.90
7000;DHT22;3540;53.242;10.408;2022-12-18T06:56:57;-8.40;99.90
7000;DHT22;3540;53.242;10.408;2022-12-18T06:59:23;-8.40;99.90
7000;DHT22;3540;53.242;10.408;2022-12-18T07:01:48;-8.50;99.90
7000;DHT22;3540;53.242;10.408;2022-12-18T07:04:14;-8.50;99.90
7000;DHT22;3540;53.242;10.408;2022-12-18T07:06:39;-8.50;99.90
7000;DHT22;3540;53.242;10.408;2022-12-18T07:09:05;-8.50;99.90
7000;DHT22;3540;53.242;10.408;2022-12-18T07:11:33;-8.50;99.90
7000;DHT22;3540;53.242;10.408;2022-12-18T07:13:58;-8.50;99.90
7000;DHT22;3540;53.242;10.408;2022-12-18T07:16:24;-8.50;99.90
7000;DHT22;3540;53.242;10.408;2022-12-18T07:18:50;-8.50;99.90
7000;DHT22;3540;53.242;10.408;2022-12-18T07:21:18;-8.50;99.90
7000;DHT22;3540;53.242;10.408;2022-12-18T07:23:44;-8.50;99.90
7000;DHT22;3540;53.242;10.408;2022-12-18T07:26:14;-8.40;99.90
7000;DHT22;3540;53.242;10.408;2022-12-18T07:28:41;-8.50;99.90
7000;DHT22;3540;53.242;10.408;2022-12-18T07:31:10;-8.50;99.90
7000;DHT22;3540;53.242;10.408;2022-12-18T07:33:37;-8.50;99.90
7000;DHT22;3540;53.242;10.408;2022-12-18T07:36:04;-8.50;99.90
7000;DHT22;3540;53.242;10.408;2022-12-18T07:38:31;-8.50;99.90
7000;DHT22;3540;53.242;10.408;2022-12-18T07:41:06;-8.50;99.90
7000;DHT22;3540;53.242;10.408;2022-12-18T07:43:33;-8.40;99.90
7000;DHT22;3540;53.242;10.408;2022-12-18T07:45:59;-8.40;99.90
7000;DHT22;3540;53.242;10.408;2022-12-18T07:48:25;-8.40;99.90
7000;DHT22;3540;53.242;10.408;2022-12-18T07:50:50;-8.40;99.90
7000;DHT22;3540;53.242;10.408;2022-12-18T07:53:16;-8.30;99.90
7000;DHT22;3540;53.242;10.408;2022-12-18T07:55:42;-8.30;99.90
7000;DHT22;3540;53.242;10.408;2022-12-18T07:58:08;-8.30;99.90
7000;DHT22;3540;53.242;10.408;2022-12-18T08:00:34;-8.30;99.90
7000;DHT22;3540;53.242;10.408;2022-12-18T08:03:00;-8.30;99.90
7000;DHT22;3540;53.242;10.408;2022-12-18T08:05:26;-8.20;99.90
7000;DHT22;3540;53.242;10.408;2022-12-18T08:07:53;-8.20;99.90
7000;DHT22;3540;53.242;10.408;2022-12-18T08:10:19;-8.10;99.90
7000;DHT22;3540;53.242;10.408;2022-12-18T08:12:45;-8.10;99.90
7000;DHT22;3540;53.242;10.408;2022-12-18T08:15:11;-8.00;99.90
7000;DHT22;3540;53.242;10.408;2022-12-18T08:17:36;-8.00;99.90
7000;DHT22;3540;53.242;10.408;2022-12-18T08:20:02;-7.90;99.90
7000;DHT22;3540;53.242;10.408;2022-12-18T08:22:28;-7.90;99.90
7000;DHT22;3540;53.242;10.408;2022-12-18T08:24:53;-7.80;99.90
7000;DHT22;3540;53.242;10.408;2022-12-18T08:27:19;-7.80;99.90
7000;DHT22;3540;53.242;10.408;2022-12-18T08:29:45;-7.70;99.90
7000;DHT22;3540;53.242;10.408;2022-12-18T08:32:10;-7.70;99.90
7000;DHT22;3540;53.242;10.408;2022-12-18T08:34:36;-7.60;99.90
7000;DHT22;3540;53.242;10.408;2022-12-18T08:37:02;-7.50;99.90
7000;DHT22;3540;53.242;10.408;2022-12-18T08:39:27;-7.50;99.90
7000;DHT22;3540;53.242;10.408;2022-12-18T08:41:53;-7.50;99.90
7000;DHT22;3540;53.242;10.408;2022-12-18T08:44:37;-7.50;99.90
7000;DHT22;3540;53.242;10.408;2022-12-18T08:47:04;-7.50;99.90
7000;DHT22;3540;53.242;10.408;2022-12-18T08:49:30;-7.40;99.90
7000;DHT22;3540;53.242;10.408;2022-12-18T08:51:56;-7.30;99.90
7000;DHT22;3540;53.242;10.408;2022-12-18T08:54:25;-7.20;99.90
7000;DHT22;3540;53.242;10.408;2022-12-18T08:56:51;-7.20;99.90
7000;DHT22;3540;53.242;10.408;2022-12-18T08:59:17;-7.10;99.90
7000;DHT22;3540;53.242;10.408;2022-12-18T09:01:43;-7.10;99.90
7000;DHT22;3540;53.242;10.408;2022-12-18T09:04:09;-7.00;99.90
7000;DHT22;3540;53.242;10.408;2022-12-18T09:06:36;-6.90;99.90
7000;DHT22;3540;53.242;10.408;2022-12-18T09:09:02;-6.90;99.90
7000;DHT22;3540;53.242;10.408;2022-12-18T09:11:30;-6.80;99.90
7000;DHT22;3540;53.242;10.408;2022-12-18T09:13:57;-6.80;99.90
7000;DHT22;3540;53.242;10.408;2022-12-18T09:16:24;-6.80;99.90
7000;DHT22;3540;53.242;10.408;2022-12-18T09:18:50;-6.80;99.90
7000;DHT22;3540;53.242;10.408;2022-12-18T09:21:20;-6.60;99.90
7000;DHT22;3540;53.242;10.408;2022-12-18T09:23:50;-6.60;99.90
7000;DHT22;3540;53.242;10.408;2022-12-18T09:26:16;-6.50;99.90
7000;DHT22;3540;53.242;10.408;2022-12-18T09:28:42;-6.50;99.90
7000;DHT22;3540;53.242;10.408;2022-12-18T09:31:11;-6.50;99.90
7000;DHT22;3540;53.242;10.408;2022-12-18T09:33:40;-6.50;99.90
7000;DHT22;3540;53.242;10.408;2022-12-18T09:36:08;-6.40;99.90
7000;DHT22;3540;53.242;10.408;2022-12-18T09:38:35;-6.30;99.90
7000;DHT22;3540;53.242;10.408;2022-12-18T09:41:06;-6.20;99.90
7000;DHT22;3540;53.242;10.408;2022-12-18T09:43:48;-6.10;99.90
7000;DHT22;3540;53.242;10.408;2022-12-18T09:46:21;-6.10;99.90
7000;DHT22;3540;53.242;10.408;2022-12-18T09:48:52;-6.00;99.90
7000;DHT22;3540;53.242;10.408;2022-12-18T09:51:32;-5.90;99.90
7000;DHT22;3540;53.242;10.408;2022-12-18T09:54:06;-5.70;99.90
7000;DHT22;3540;53.242;10.408;2022-12-18T09:56:36;-5.50;99.90
7000;DHT22;3540;53.242;10.408;2022-12-18T09:59:04;-5.60;99.90
7000;DHT22;3540;53.242;10.408;2022-12-18T10:01:31;-5.60;99.90
7000;DHT22;3540;53.242;10.408;2022-12-18T10:03:59;-5.50;99.90
7000;DHT22;3540;53.242;10.408;2022-12-18T10:07:12;-5.40;99.90
7000;DHT22;3540;53.242;10.408;2022-12-18T10:09:46;-5.20;99.90
7000;DHT22;3540;53.242;10.408;2022-12-18T10:12:26;-5.20;99.90
7000;DHT22;3540;53.242;10.408;2022-12-18T10:15:16;-5.10;99.90
7000;DHT22;3540;53.242;10.408;2022-12-18T10:28:23;-4.30;99.90
7000;DHT22;3540;53.242;10.408;2022-12-18T10:30:50;-4.30;99.90
7000;DHT22;3540;53.242;10.408;2022-12-18T10:33:23;-4.40;99.90
7000;DHT22;3540;53.242;10.408;2022-12-18T10:35:53;-4.30;99.90
7000;DHT22;3540;53.242;10.408;2022-12-18T10:38:26;-4.30;99.90
7000;DHT22;3540;53.242;10.408;2022-12-18T10:43:23;-4.00;99.90
7000;DHT22;3540;53.242;10.408;2022-12-18T10:51:02;-3.70;99.90
7000;DHT22;3540;53.242;10.408;2022-12-18T10:53:31;-3.80;99.90
7000;DHT22;3540;53.242;10.408;2022-12-18T10:56:03;-3.60;99.90
7000;DHT22;3540;53.242;10.408;2022-12-18T10:58:34;-3.60;99.90
7000;DHT22;3540;53.242;10.408;2022-12-18T11:06:13;-3.60;99.90
7000;DHT22;3540;53.242;10.408;2022-12-18T11:08:41;-3.50;99.90
7000;DHT22;3540;53.242;10.408;2022-12-18T11:11:21;-3.60;99.90
7000;DHT22;3540;53.242;10.408;2022-12-18T11:16:26;-3.40;99.90
7000;DHT22;3540;53.242;10.408;2022-12-18T11:18:53;-3.30;99.90
7000;DHT22;3540;53.242;10.408;2022-12-18T11:21:19;-3.20;99.90
7000;DHT22;3540;53.242;10.408;2022-12-18T11:23:50;-3.20;99.90
7000;DHT22;3540;53.242;10.408;2022-12-18T11:26:17;-3.10;99.90
7000;DHT22;3540;53.242;10.408;2022-12-18T11:29:08;-3.10;99.90
7000;DHT22;3540;53.242;10.408;2022-12-18T11:31:34;-3.10;99.90
7000;DHT22;3540;53.242;10.408;2022-12-18T11:36:42;-3.20;99.90
7000;DHT22;3540;53.242;10.408;2022-12-18T11:42:44;-3.10;99.90
7000;DHT22;3540;53.242;10.408;2022-12-18T11:44:58;-3.10;99.90
7000;DHT22;3540;53.242;10.408;2022-12-18T11:50:30;-2.90;99.90
7000;DHT22;3540;53.242;10.408;2022-12-18T11:52:56;-2.80;99.90
7000;DHT22;3540;53.242;10.408;2022-12-18T11:55:31;-2.90;99.90
7000;DHT22;3540;53.242;10.408;2022-12-18T11:58:26;-2.90;99.90
7000;DHT22;3540;53.242;10.408;2022-12-18T12:06:34;-2.40;99.90
7000;DHT22;3540;53.242;10.408;2022-12-18T12:17:02;-2.60;99.90
7000;DHT22;3540;53.242;10.408;2022-12-18T12:20:10;-2.60;99.90
7000;DHT22;3540;53.242;10.408;2022-12-18T12:22:54;-2.60;99.90
7000;DHT22;3540;53.242;10.408;2022-12-18T12:25:33;-2.50;99.90
7000;DHT22;3540;53.242;10.408;2022-12-18T12:39:01;-2.60;99.90
7000;DHT22;3540;53.242;10.408;2022-12-18T12:41:32;-2.50;99.90
7000;DHT22;3540;53.242;10.408;2022-12-18T12:44:27;-2.50;99.90
7000;DHT22;3540;53.242;10.408;2022-12-18T12:46:59;-2.70;99.90
7000;DHT22;3540;53.242;10.408;2022-12-18T12:49:28;-2.70;99.90
7000;DHT22;3540;53.242;10.408;2022-12-18T12:52:10;-2.80;99.90
7000;DHT22;3540;53.242;10.408;2022-12-18T12:54:38;-2.80;99.90
7000;DHT22;3540;53.242;10.408;2022-12-18T12:57:23;-2.80;99.90
7000;DHT22;3540;53.242;10.408;2022-12-18T13:02:22;-2.60;99.90
7000;DHT22;3540;53.242;10.408;2022-12-18T13:05:04;-2.60;99.90
7000;DHT22;3540;53.242;10.408;2022-12-18T13:08:02;-2.60;99.90
7000;DHT22;3540;53.242;10.408;2022-12-18T13:10:34;-2.70;99.90
7000;DHT22;3540;53.242;10.408;2022-12-18T13:13:07;-2.60;99.90
7000;DHT22;3540;53.242;10.408;2022-12-18T13:15:41;-2.50;99.90
7000;DHT22;3540;53.242;10.408;2022-12-18T13:25:59;-2.60;99.90
7000;DHT22;3540;53.242;10.408;2022-12-18T13:34:26;-2.70;99.90
7000;DHT22;3540;53.242;10.408;2022-12-18T13:39:40;-2.80;99.90
7000;DHT22;3540;53.242;10.408;2022-12-18T13:44:32;-2.90;99.90
7000;DHT22;3540;53.242;10.408;2022-12-18T13:47:00;-3.00;99.90
7000;DHT22;3540;53.242;10.408;2022-12-18T13:49:39;-3.10;99.90
7000;DHT22;3540;53.242;10.408;2022-12-18T13:52:33;-3.10;99.90
7000;DHT22;3540;53.242;10.408;2022-12-18T13:55:02;-3.20;99.90
7000;DHT22;3540;53.242;10.408;2022-12-18T13:57:37;-3.20;99.90
7000;DHT22;3540;53.242;10.408;2022-12-18T14:02:47;-3.30;99.90
7000;DHT22;3540;53.242;10.408;2022-12-18T14:05:30;-3.30;99.90
7000;DHT22;3540;53.242;10.408;2022-12-18T14:08:10;-3.40;99.90
7000;DHT22;3540;53.242;10.408;2022-12-18T14:10:44;-3.40;99.90
7000;DHT22;3540;53.242;10.408;2022-12-18T14:13:17;-3.40;99.90
7000;DHT22;3540;53.242;10.408;2022-12-18T14:15:46;-3.40;99.90
7000;DHT22;3540;53.242;10.408;2022-12-18T14:18:42;-3.50;99.90
7000;DHT22;3540;53.242;10.408;2022-12-18T14:21:25;-3.50;99.90
7000;DHT22;3540;53.242;10.408;2022-12-18T14:26:40;-3.50;99.90
7000;DHT22;3540;53.242;10.408;2022-12-18T14:29:25;-3.50;99.90
7000;DHT22;3540;53.242;10.408;2022-12-18T14:32:13;-3.60;99.90
7000;DHT22;3540;53.242;10.408;2022-12-18T14:34:43;-3.60;99.90
7000;DHT22;3540;53.242;10.408;2022-12-18T14:37:12;-3.70;99.90
7000;DHT22;3540;53.242;10.408;2022-12-18T14:39:38;-3.70;99.90
7000;DHT22;3540;53.242;10.408;2022-12-18T14:42:04;-3.70;99.90
7000;DHT22;3540;53.242;10.408;2022-12-18T14:44:30;-3.80;99.90
7000;DHT22;3540;53.242;10.408;2022-12-18T14:46:56;-3.80;99.90
7000;DHT22;3540;53.242;10.408;2022-12-18T14:49:33;-3.80;99.90
7000;DHT22;3540;53.242;10.408;2022-12-18T14:52:04;-3.80;99.90
7000;DHT22;3540;53.242;10.408;2022-12-18T14:54:31;-3.80;99.90
7000;DHT22;3540;53.242;10.408;2022-12-18T14:57:19;-3.80;99.90
7000;DHT22;3540;53.242;10.408;2022-12-18T14:59:46;-3.70;99.90
7000;DHT22;3540;53.242;10.408;2022-12-18T15:02:28;-3.80;99.90
7000;DHT22;3540;53.242;10.408;2022-12-18T15:05:21;-3.80;99.90
7000;DHT22;3540;53.242;10.408;2022-12-18T15:07:52;-3.80;99.90
7000;DHT22;3540;53.242;10.408;2022-12-18T15:10:29;-3.80;99.90
7000;DHT22;3540;53.242;10.408;2022-12-18T15:18:24;-3.90;99.90
7000;DHT22;3540;53.242;10.408;2022-12-18T15:26:02;-4.00;99.90
7000;DHT22;3540;53.242;10.408;2022-12-18T15:31:21;-4.00;99.90
7000;DHT22;3540;53.242;10.408;2022-12-18T15:36:22;-4.00;99.90
7000;DHT22;3540;53.242;10.408;2022-12-18T15:38:49;-4.00;99.90
7000;DHT22;3540;53.242;10.408;2022-12-18T15:41:17;-4.00;99.90
7000;DHT22;3540;53.242;10.408;2022-12-18T15:43:45;-4.00;99.90
7000;DHT22;3540;53.242;10.408;2022-12-18T15:46:22;-4.10;99.90
7000;DHT22;3540;53.242;10.408;2022-12-18T15:48:50;-4.00;99.90
7000;DHT22;3540;53.242;10.408;2022-12-18T15:51:28;-4.00;99.90
7000;DHT22;3540;53.242;10.408;2022-12-18T15:53:56;-3.90;99.90
7000;DHT22;3540;53.242;10.408;2022-12-18T15:56:27;-3.90;99.90
7000;DHT22;3540;53.242;10.408;2022-12-18T15:59:16;-4.00;99.90
7000;DHT22;3540;53.242;10.408;2022-12-18T16:01:44;-3.90;99.90
7000;DHT22;3540;53.242;10.408;2022-12-18T16:04:15;-4.00;99.90
7000;DHT22;3540;53.242;10.408;2022-12-18T16:06:42;-3.90;99.90
7000;DHT22;3540;53.242;10.408;2022-12-18T16:09:08;-3.90;99.90
7000;DHT22;3540;53.242;10.408;2022-12-18T16:11:36;-3.90;99.90
7000;DHT22;3540;53.242;10.408;2022-12-18T16:16:49;-3.80;99.90
7000;DHT22;3540;53.242;10.408;2022-12-18T16:19:15;-3.80;99.90
7000;DHT22;3540;53.242;10.408;2022-12-18T16:21:42;-3.80;99.90
7000;DHT22;3540;53.242;10.408;2022-12-18T16:24:18;-3.80;99.90
7000;DHT22;3540;53.242;10.408;2022-12-18T16:26:47;-3.80;99.90
7000;DHT22;3540;53.242;10.408;2022-12-18T16:29:13;-3.70;99.90
7000;DHT22;3540;53.242;10.408;2022-12-18T16:31:39;-3.80;99.90
7000;DHT22;3540;53.242;10.408;2022-12-18T16:34:18;-3.80;99.90
7000;DHT22;3540;53.242;10.408;2022-12-18T16:36:46;-3.70;99.90
7000;DHT22;3540;53.242;10.408;2022-12-18T16:39:12;-3.70;99.90
7000;DHT22;3540;53.242;10.408;2022-12-18T16:41:38;-3.70;99.90
7000;DHT22;3540;53.242;10.408;2022-12-18T16:44:04;-3.70;99.90
7000;DHT22;3540;53.242;10.408;2022-12-18T16:46:29;-3.70;99.90
7000;DHT22;3540;53.242;10.408;2022-12-18T16:48:57;-3.60;99.90
7000;DHT22;3540;53.242;10.408;2022-12-18T16:51:23;-3.70;99.90
7000;DHT22;3540;53.242;10.408;2022-12-18T16:53:48;-3.60;99.90
7000;DHT22;3540;53.242;10.408;2022-12-18T16:56:14;-3.70;99.90
7000;DHT22;3540;53.242;10.408;2022-12-18T16:58:40;-3.60;99.90
7000;DHT22;3540;53.242;10.408;2022-12-18T17:01:10;-3.60;99.90
7000;DHT22;3540;53.242;10.408;2022-12-18T17:03:35;-3.60;99.90
7000;DHT22;3540;53.242;10.408;2022-12-18T17:06:05;-3.60;99.90
7000;DHT22;3540;53.242;10.408;2022-12-18T17:08:32;-3.50;99.90
7000;DHT22;3540;53.242;10.408;2022-12-18T17:11:07;-3.60;99.90
7000;DHT22;3540;53.242;10.408;2022-12-18T17:13:33;-3.50;99.90
7000;DHT22;3540;53.242;10.408;2022-12-18T17:16:06;-3.50;99.90
7000;DHT22;3540;53.242;10.408;2022-12-18T17:18:35;-3.50;99.90
7000;DHT22;3540;53.242;10.408;2022-12-18T17:21:01;-3.50;99.90
7000;DHT22;3540;53.242;10.408;2022-12-18T17:23:28;-3.50;99.90
7000;DHT22;3540;53.242;10.408;2022-12-18T17:25:58;-3.50;99.90
7000;DHT22;3540;53.242;10.408;2022-12-18T17:28:26;-3.40;99.90
7000;DHT22;3540;53.242;10.408;2022-12-18T17:30:53;-3.40;99.90
7000;DHT22;3540;53.242;10.408;2022-12-18T17:33:19;-3.40;99.90
7000;DHT22;3540;53.242;10.408;2022-12-18T17:35:45;-3.40;99.90
7000;DHT22;3540;53.242;10.408;2022-12-18T17:38:11;-3.40;99.90
7000;DHT22;3540;53.242;10.408;2022-12-18T17:40:37;-3.30;99.90
7000;DHT22;3540;53.242;10.408;2022-12-18T17:43:02;-3.30;99.90
7000;DHT22;3540;53.242;10.408;2022-12-18T17:45:28;-3.30;99.90
7000;DHT22;3540;53.242;10.408;2022-12-18T17:47:54;-3.30;99.90
7000;DHT22;3540;53.242;10.408;2022-12-18T17:50:19;-3.30;99.90
7000;DHT22;3540;53.242;10.408;2022-12-18T17:52:45;-3.20;99.90
7000;DHT22;3540;53.242;10.408;2022-12-18T17:55:10;-3.20;99.90
7000;DHT22;3540;53.242;10.408;2022-12-18T17:57:36;-3.20;99.90
7000;DHT22;3540;53.242;10.408;2022-12-18T18:00:05;-3.20;99.90
7000;DHT22;3540;53.242;10.408;2022-12-18T18:02:31;-3.20;99.90
7000;DHT22;3540;53.242;10.408;2022-12-18T18:04:56;-3.20;99.90
7000;DHT22;3540;53.242;10.408;2022-12-18T18:07:22;-3.20;99.90
7000;DHT22;3540;53.242;10.408;2022-12-18T18:09:48;-3.20;99.90
7000;DHT22;3540;53.242;10.408;2022-12-18T18:12:13;-3.20;99.90